Time;durP1;ratioP1;P1;durP2;ratioP2;P2;SDS_P1;SDS_P2;PMS_P1;PMS_P2;Temp;Humidity;BMP_temperature;BMP_pressure;BME280_temperature;BME280_humidity;BME280_pressure;Samples;Min_cycle;Max_cycle;Signal;HPM_P1;HPM_P2
2021/06/26 00:02:04;;;;;;;29.27;22.07;;;;;;;18.01;85.92;98130.81;1646268;86;21336;-90
2021/06/26 00:04:42;;;;;;;;;;;;;;;;;;;;;
2021/06/26 00:07:06;;;;;;;27.40;21.40;;;;;;;17.98;86.44;98126.00;1686375;83;21438;-85
2021/06/26 00:09:41;;;;;;;21.50;18.73;;;;;;;17.96;86.21;98129.06;1687395;84;21430;-89
2021/06/26 00:12:06;;;;;;;30.92;19.85;;;;;;;17.92;86.79;98152.77;1687361;83;21318;-82
2021/06/26 00:14:32;;;;;;;30.72;22.22;;;;;;;17.88;86.04;98141.41;1686567;82;20981;-80
2021/06/26 00:17:00;;;;;;;24.98;20.60;;;;;;;17.84;86.25;98151.40;1688048;83;21346;-81
2021/06/26 00:19:28;;;;;;;25.75;19.17;;;;;;;17.84;86.29;98155.52;1676669;85;21023;-87
2021/06/26 00:22:06;;;;;;;;;;;;;;;;;;;;;
2021/06/26 00:24:26;;;;;;;27.30;20.57;;;;;;;17.80;86.57;98168.27;1685449;85;21034;-87
2021/06/26 00:26:56;;;;;;;24.98;20.50;;;;;;;17.85;86.53;98167.52;1688278;83;20985;-87
2021/06/26 00:29:31;;;;;;;30.00;21.30;;;;;;;17.93;86.71;98170.81;1677652;85;20971;-82
2021/06/26 00:31:56;;;;;;;26.05;21.10;;;;;;;17.99;86.55;98170.09;1635322;86;21054;-82
2021/06/26 00:34:25;;;;;;;24.55;21.10;;;;;;;18.08;86.30;98164.60;1636166;87;21026;-88
2021/06/26 00:36:56;;;;;;;25.77;20.23;;;;;;;18.16;86.05;98159.67;1627455;86;21071;-83
2021/06/26 00:39:26;;;;;;;30.30;20.15;;;;;;;18.22;85.84;98157.81;1626339;88;21003;-89
2021/06/26 00:41:57;;;;;;;25.57;20.90;;;;;;;18.22;85.67;98155.06;1622348;87;21396;-88
2021/06/26 00:44:30;;;;;;;29.60;22.52;;;;;;;18.21;85.73;98163.05;1619603;88;20909;-88
2021/06/26 00:47:13;;;;;;;;;;;;;;;;;;;;;
2021/06/26 00:49:33;;;;;;;29.92;21.93;;;;;;;18.06;85.72;98163.56;1604666;88;21254;-88
2021/06/26 00:52:05;;;;;;;31.53;22.80;;;;;;;18.00;86.03;98167.59;1614721;87;21408;-83
2021/06/26 00:54:44;;;;;;;;;;;;;;;;;;;;;
2021/06/26 00:57:06;;;;;;;29.42;21.20;;;;;;;17.99;85.97;98167.36;1564484;88;21435;-83
2021/06/26 00:59:37;;;;;;;26.17;20.60;;;;;;;17.94;85.72;98175.73;1654693;83;21032;-88
2021/06/26 01:02:18;;;;;;;;;;;;;;;;;;;;;
2021/06/26 01:04:33;;;;;;;26.50;21.80;;;;;;;17.89;87.36;98171.80;1709352;83;21016;-82
2021/06/26 01:07:01;;;;;;;30.80;21.02;;;;;;;17.86;87.03;98171.06;1723213;82;20933;-88
2021/06/26 01:09:31;;;;;;;26.27;20.70;;;;;;;17.86;86.93;98170.52;1723652;83;21445;-89
2021/06/26 01:12:01;;;;;;;29.65;20.90;;;;;;;17.82;86.63;98166.80;1723097;81;20969;-89
2021/06/26 01:14:32;;;;;;;25.30;20.23;;;;;;;17.81;87.09;98167.13;1680438;85;21367;-88
2021/06/26 01:17:09;;;;;;;24.27;21.15;;;;;;;17.79;88.00;98168.83;1686299;83;20934;-88
2021/06/26 01:19:48;;;;;;;;;;;;;;;;;;;;;
2021/06/26 01:22:17;;;;;;;;;;;;;;;;;;;;;
2021/06/26 01:24:38;;;;;;;26.50;20.40;;;;;;;17.89;87.64;98173.17;1684557;85;20965;-83
2021/06/26 01:27:10;;;;;;;23.62;20.35;;;;;;;17.95;87.23;98163.66;1647898;87;21485;-83
2021/06/26 01:29:41;;;;;;;26.57;20.75;;;;;;;18.02;86.97;98159.27;1647973;86;20973;-83
2021/06/26 01:32:11;;;;;;;29.72;21.02;;;;;;;18.11;86.84;98152.97;1647899;87;21033;-89
2021/06/26 01:34:39;;;;;;;30.82;22.10;;;;;;;18.16;86.86;98151.44;1623297;87;20966;-83
2021/06/26 01:37:09;;;;;;;29.63;21.68;;;;;;;18.17;86.82;98149.74;1643365;87;21053;-83
2021/06/26 01:39:37;;;;;;;26.27;21.13;;;;;;;18.20;86.54;98147.73;1648684;87;21005;-89
2021/06/26 01:42:04;;;;;;;25.50;20.70;;;;;;;18.14;86.08;98150.97;1648512;86;21266;-89
2021/06/26 01:44:34;;;;;;;24.43;19.35;;;;;;;18.14;86.18;98146.86;1644986;87;21708;-83
2021/06/26 01:47:04;;;;;;;29.15;22.05;;;;;;;18.15;86.01;98145.72;1648107;87;21097;-83
2021/06/26 01:49:38;;;;;;;26.82;20.43;;;;;;;18.06;86.28;98150.42;1648617;87;21033;-89
2021/06/26 01:52:00;;;;;;;26.93;20.55;;;;;;;18.08;86.17;98148.15;1672795;85;21442;-82
2021/06/26 01:54:26;;;;;;;31.17;20.50;;;;;;;18.15;86.17;98150.64;1687309;85;20954;-88
2021/06/26 01:56:55;;;;;;;33.13;21.60;;;;;;;18.20;86.22;98149.11;1690185;83;20953;-89
2021/06/26 01:59:22;;;;;;;30.15;22.22;;;;;;;18.21;86.14;98145.23;1664797;84;21592;-82
2021/06/26 02:01:51;;;;;;;27.02;20.52;;;;;;;18.28;86.06;98148.25;1712817;82;21321;-89
2021/06/26 02:04:18;;;;;;;34.03;18.80;;;;;;;18.30;86.09;98147.38;1685631;83;20961;-89
2021/06/26 02:06:45;;;;;;;37.13;22.62;;;;;;;18.25;85.83;98146.74;1712639;82;21045;-88
2021/06/26 02:09:13;;;;;;;26.23;22.62;;;;;;;18.18;85.76;98153.28;1712974;83;20995;-89
2021/06/26 02:11:43;;;;;;;26.35;22.05;;;;;;;18.13;85.78;98151.53;1712375;82;21013;-83
2021/06/26 02:14:12;;;;;;;28.75;20.20;;;;;;;18.13;86.40;98159.77;1703734;83;20922;-83
2021/06/26 02:16:41;;;;;;;30.57;20.35;;;;;;;18.08;87.05;98155.81;1712529;82;21386;-83
2021/06/26 02:19:20;;;;;;;;;;;;;;;;;;;;;
2021/06/26 02:21:45;;;;;;;29.52;21.65;;;;;;;17.97;86.70;98166.31;1705920;82;21020;-82
2021/06/26 02:24:10;;;;;;;25.20;20.35;;;;;;;17.95;86.55;98165.03;1712905;82;22119;-89
2021/06/26 02:26:42;;;;;;;28.45;23.22;;;;;;;17.94;86.96;98161.46;1712863;82;20973;-88
2021/06/26 02:29:12;;;;;;;31.33;23.87;;;;;;;18.00;87.49;98158.00;1713168;83;20981;-89
2021/06/26 02:31:45;;;;;;;30.60;23.60;;;;;;;18.06;87.13;98147.11;1710435;82;21318;-83
2021/06/26 02:34:26;;;;;;;;;;;;;;;;;;;;;
2021/06/26 02:36:55;;;;;;;31.23;21.97;;;;;;;18.16;86.76;98139.91;1701543;82;21409;-88
2021/06/26 02:39:18;;;;;;;30.77;21.35;;;;;;;18.20;87.24;98135.39;1656705;84;21025;-89
2021/06/26 02:41:52;;;;;;;23.95;19.40;;;;;;;18.20;87.28;98134.02;1683990;83;21453;-89
2021/06/26 02:44:20;;;;;;;23.55;18.92;;;;;;;18.16;87.28;98135.80;1635963;84;21034;-82
2021/06/26 02:46:50;;;;;;;25.80;19.37;;;;;;;18.11;86.59;98139.27;1705520;82;21014;-83
2021/06/26 02:49:18;;;;;;;23.05;19.70;;;;;;;18.04;86.63;98143.89;1683233;84;21407;-83
2021/06/26 02:51:56;;;;;;;;;;;;;;;;;;;;;
2021/06/26 02:54:23;;;;;;;21.30;17.82;;;;;;;18.08;86.54;98154.44;1691133;84;21465;-83
2021/06/26 02:56:59;;;;;;;26.57;21.90;;;;;;;18.06;86.85;98154.53;1579247;89;20972;-88
2021/06/26 02:59:33;;;;;;;;;;;;;;;;;;;;;
2021/06/26 03:01:56;;;;;;;29.23;20.70;;;;;;;17.90;88.67;98168.73;1675557;83;21015;-89
2021/06/26 03:04:25;;;;;;;24.15;19.32;;;;;;;17.88;87.97;98175.11;1662345;84;21095;-82
2021/06/26 03:06:55;;;;;;;26.13;20.77;;;;;;;17.94;87.69;98178.47;1688207;83;20934;-82
2021/06/26 03:09:37;;;;;;;;;;;;;;;;;;;;;
2021/06/26 03:11:57;;;;;;;24.23;19.20;;;;;;;18.08;87.67;98181.05;1673257;84;20954;-86
2021/06/26 03:14:29;;;;;;;26.97;19.32;;;;;;;18.11;87.67;98181.20;1664353;84;21082;-89
2021/06/26 03:17:00;;;;;;;27.02;20.45;;;;;;;18.18;87.71;98183.45;1677341;84;21446;-89
2021/06/26 03:19:29;;;;;;;26.25;17.62;;;;;;;18.16;88.06;98185.16;1688191;82;20909;-82
2021/06/26 03:21:55;;;;;;;22.40;18.17;;;;;;;18.14;87.39;98188.79;1675017;84;21393;-89
2021/06/26 03:24:22;;;;;;;24.97;18.43;;;;;;;18.06;87.25;98176.47;1682630;85;21271;-83
2021/06/26 03:26:53;;;;;;;22.85;19.75;;;;;;;18.06;87.56;98184.69;1664439;85;20945;-89
2021/06/26 03:29:23;;;;;;;22.65;18.17;;;;;;;18.07;87.56;98185.73;1674846;85;20914;-88
2021/06/26 03:31:53;;;;;;;27.15;20.48;;;;;;;18.06;87.37;98185.49;1688033;83;20929;-89
2021/06/26 03:34:26;;;;;;;25.25;17.62;;;;;;;18.07;87.67;98185.73;1688200;84;20934;-82
2021/06/26 03:36:51;;;;;;;23.35;17.95;;;;;;;18.07;87.84;98182.98;1675850;84;20974;-89
2021/06/26 03:39:28;;;;;;;;;;;;;;;;;;;;;
2021/06/26 03:41:51;;;;;;;22.80;17.77;;;;;;;18.14;88.09;98183.31;1679851;83;21405;-83
2021/06/26 03:44:19;;;;;;;26.90;20.62;;;;;;;18.15;87.71;98187.66;1687581;84;20961;-82
2021/06/26 03:46:48;;;;;;;25.60;19.50;;;;;;;18.14;87.29;98179.20;1665265;84;21025;-89
2021/06/26 03:49:19;;;;;;;23.95;18.27;;;;;;;18.14;87.74;98185.25;1687512;85;21711;-82
2021/06/26 03:51:45;;;;;;;20.17;17.92;;;;;;;18.17;87.89;98187.33;1671749;84;20986;-83
2021/06/26 03:54:15;;;;;;;22.43;18.73;;;;;;;18.23;87.51;98179.18;1687940;84;21072;-82
2021/06/26 03:56:52;;;;;;;22.73;18.95;;;;;;;18.21;87.51;98189.11;1683707;84;21015;-82
2021/06/26 03:59:21;;;;;;;22.73;17.67;;;;;;;18.22;87.55;98183.86;1675748;84;21010;-88
2021/06/26 04:01:51;;;;;;;22.30;18.00;;;;;;;18.24;87.61;98183.53;1698011;83;21338;-89
2021/06/26 04:04:21;;;;;;;23.10;16.93;;;;;;;18.27;87.40;98182.87;1695180;84;21190;-88
2021/06/26 04:06:51;;;;;;;25.08;21.17;;;;;;;18.33;87.29;98188.43;1638081;84;20909;-82
2021/06/26 04:09:23;;;;;;;28.95;21.05;;;;;;;18.32;87.09;98184.08;1664099;84;21262;-89
2021/06/26 04:11:53;;;;;;;27.02;20.65;;;;;;;18.35;87.01;98186.73;1697954;83;20930;-89
2021/06/26 04:14:22;;;;;;;24.52;20.55;;;;;;;18.39;86.89;98181.65;1698282;84;20961;-83
2021/06/26 04:16:52;;;;;;;21.65;18.75;;;;;;;18.41;86.61;98189.55;1698048;83;21336;-88
2021/06/26 04:19:18;;;;;;;25.43;21.77;;;;;;;18.38;86.44;98185.52;1698746;84;21013;-89
2021/06/26 04:21:47;;;;;;;22.95;18.37;;;;;;;18.35;86.40;98186.73;1695615;83;21392;-88
2021/06/26 04:24:15;;;;;;;23.60;19.87;;;;;;;18.37;86.39;98185.83;1698179;84;21019;-82
2021/06/26 04:26:41;;;;;;;24.35;18.90;;;;;;;18.39;86.94;98183.02;1670533;84;20991;-81
2021/06/26 04:29:13;;;;;;;24.07;18.05;;;;;;;18.45;87.04;98174.83;1694865;84;20889;-82
2021/06/26 04:31:52;;;;;;;;;;;;;;;;;;;;;
2021/06/26 04:34:12;;;;;;;26.15;18.70;;;;;;;18.58;86.50;98173.83;1686687;84;21346;-88
2021/06/26 04:36:45;;;;;;;20.80;17.93;;;;;;;18.60;85.87;98170.75;1696373;83;20913;-83
2021/06/26 04:39:15;;;;;;;23.35;17.27;;;;;;;18.66;86.02;98175.54;1649533;84;20897;-83
2021/06/26 04:41:50;;;;;;;23.15;19.17;;;;;;;18.69;85.37;98174.88;1693229;83;20984;-89
2021/06/26 04:44:22;;;;;;;21.95;17.75;;;;;;;18.69;85.37;98178.98;1697303;83;21067;-88
2021/06/26 04:46:49;;;;;;;21.50;18.15;;;;;;;18.67;85.21;98180.69;1609696;87;21082;-89
2021/06/26 04:49:18;;;;;;;28.02;22.87;;;;;;;18.72;85.38;98180.53;1676364;84;21025;-88
2021/06/26 04:51:50;;;;;;;23.42;19.60;;;;;;;18.86;85.30;98179.72;1697564;83;21440;-83
2021/06/26 04:54:25;;;;;;;22.58;17.25;;;;;;;18.95;84.95;98178.30;1686037;84;20977;-82
2021/06/26 04:57:03;;;;;;;21.80;18.20;;;;;;;18.97;84.62;98177.43;1692244;83;21014;-82
2021/06/26 04:59:25;;;;;;;23.12;17.87;;;;;;;19.06;84.65;98174.06;1663412;85;21028;-82
2021/06/26 05:01:56;;;;;;;21.17;17.65;;;;;;;19.04;83.99;98176.31;1660310;85;21085;-83
2021/06/26 05:04:42;;;;;;;;;;;;;;;;;;;;;
2021/06/26 05:07:04;;;;;;;21.73;18.52;;;;;;;19.06;83.35;98187.80;1567759;88;20934;-89
2021/06/26 05:09:35;;;;;;;22.45;19.42;;;;;;;19.04;82.86;98187.87;1537033;93;21067;-88
2021/06/26 05:12:04;;;;;;;21.48;17.30;;;;;;;19.01;83.02;98192.09;1577155;88;21076;-89
2021/06/26 05:14:38;;;;;;;22.58;16.80;;;;;;;19.02;82.61;98197.02;1605069;88;21001;-82
2021/06/26 05:17:16;;;;;;;;;;;;;;;;;;;;;
2021/06/26 05:19:53;;;;;;;;;;;;;;;;;;;;;
2021/06/26 05:22:19;;;;;;;23.73;18.02;;;;;;;19.03;82.50;98187.64;1605141;88;21031;-88
2021/06/26 05:25:09;;;;;;;;;;;;;;;;;;;;;
2021/06/26 05:27:34;;;;;;;20.00;15.90;;;;;;;18.87;82.51;98195.05;1602702;88;21007;-87
2021/06/26 05:30:10;;;;;;;;;;;;;;;;;;;;;
2021/06/26 05:35:06;;;;;;;23.42;16.93;;;;;;;18.81;82.44;98203.25;1678149;84;20859;-89
2021/06/26 05:37:42;;;;;;;20.92;16.20;;;;;;;18.82;82.62;98202.12;1673283;84;21040;-88
2021/06/26 05:40:22;;;;;;;;;;;;;;;;;;;;;
2021/06/26 05:42:56;;;;;;;;;;;;;;;;;;;;;
2021/06/26 05:45:25;;;;;;;21.48;15.80;;;;;;;18.97;82.25;98203.52;1608332;85;20957;-83
2021/06/26 05:47:54;;;;;;;21.75;17.55;;;;;;;19.11;82.27;98206.81;1654896;85;20977;-89
2021/06/26 05:50:48;;;;;;;;;;;;;;;;;;;;;
2021/06/26 05:53:22;;;;;;;;;;;;;;;;;;;;;
2021/06/26 05:55:42;;;;;;;;;;;;;;;;;;;;;
2021/06/26 05:58:05;;;;;;;25.60;19.90;;;;;;;19.34;80.99;98208.72;1676304;85;20910;-83
2021/06/26 06:00:37;;;;;;;24.85;19.55;;;;;;;19.28;80.41;98213.36;1651314;84;21505;-84
2021/06/26 06:03:05;;;;;;;25.72;20.43;;;;;;;19.33;80.92;98215.36;1678271;85;21030;-83
2021/06/26 06:05:39;;;;;;;29.42;22.30;;;;;;;19.31;80.49;98215.43;1677420;84;21500;-89
2021/06/26 06:08:07;;;;;;;28.57;23.95;;;;;;;19.21;80.68;98215.25;1678193;85;20986;-89
2021/06/26 06:10:37;;;;;;;29.10;24.10;;;;;;;19.22;80.55;98209.19;1670634;84;21021;-89
2021/06/26 06:13:05;;;;;;;26.90;23.38;;;;;;;19.25;80.72;98209.34;1677081;85;21263;-83
2021/06/26 06:15:35;;;;;;;26.07;23.22;;;;;;;19.31;80.74;98212.69;1653704;84;21001;-89
2021/06/26 06:18:03;;;;;;;29.45;23.38;;;;;;;19.29;80.48;98211.64;1677634;84;21037;-89
2021/06/26 06:20:29;;;;;;;30.07;23.37;;;;;;;19.29;80.41;98214.39;1677337;84;21543;-88
2021/06/26 06:22:55;;;;;;;27.42;24.37;;;;;;;19.29;80.26;98217.71;1677952;85;21781;-83
2021/06/26 06:25:21;;;;;;;33.53;25.08;;;;;;;19.32;79.98;98214.32;1678113;84;21036;-89
2021/06/26 06:27:50;;;;;;;28.98;25.25;;;;;;;19.25;79.64;98217.58;1677715;85;21464;-82
2021/06/26 06:30:19;;;;;;;28.57;25.07;;;;;;;19.38;79.81;98221.22;1677981;85;21029;-83
2021/06/26 06:32:46;;;;;;;;;;;;;;;19.33;79.55;98215.92;1680071;85;21077;-83
2021/06/26 06:35:21;;;;;;;28.83;25.70;;;;;;;19.37;79.90;98214.11;1680411;84;20195;-89
2021/06/26 06:37:42;;;;;;;31.40;25.60;;;;;;;19.47;79.61;98209.59;1679280;85;20934;-83
2021/06/26 06:40:12;;;;;;;27.65;24.67;;;;;;;19.57;79.59;98209.80;1680878;84;21492;-83
2021/06/26 06:42:42;;;;;;;30.12;25.15;;;;;;;19.58;79.40;98211.44;1680735;83;21052;-83
2021/06/26 06:45:11;;;;;;;26.52;23.57;;;;;;;19.69;79.34;98216.20;1681042;85;21386;-89
2021/06/26 06:47:42;;;;;;;28.62;23.27;;;;;;;19.57;78.42;98222.17;1679359;84;21950;-89
2021/06/26 06:50:07;;;;;;;23.52;19.50;;;;;;;19.63;78.98;98228.52;1676505;85;20969;-83
2021/06/26 06:52:33;;;;;;;24.07;20.15;;;;;;;19.63;77.72;98231.27;1676412;84;21051;-83
2021/06/26 06:55:01;;;;;;;22.87;20.43;;;;;;;19.73;78.39;98230.86;1676658;85;20947;-89
2021/06/26 06:57:30;;;;;;;26.12;22.60;;;;;;;19.81;78.00;98239.39;1675734;84;21394;-83
2021/06/26 06:59:57;;;;;;;24.43;21.87;;;;;;;19.93;77.87;98228.48;1676199;85;20958;-89
2021/06/26 07:02:23;;;;;;;24.30;21.65;;;;;;;20.00;77.54;98232.30;1676118;84;21028;-83
2021/06/26 07:04:51;;;;;;;21.37;17.87;;;;;;;20.09;77.46;98228.67;1676565;85;21085;-89
2021/06/26 07:07:17;;;;;;;20.52;17.30;;;;;;;20.06;75.76;98230.70;1675594;84;21052;-89
2021/06/26 07:09:47;;;;;;;27.80;17.00;;;;;;;20.06;75.95;98232.87;1676571;85;21354;-82
2021/06/26 07:12:16;;;;;;;22.35;17.80;;;;;;;20.16;75.79;98233.04;1676324;84;21712;-89
2021/06/26 07:14:42;;;;;;;19.67;17.60;;;;;;;20.20;75.31;98236.73;1676545;85;21051;-83
2021/06/26 07:17:13;;;;;;;20.60;16.95;;;;;;;20.37;75.73;98232.45;1664891;85;20989;-83
2021/06/26 07:19:43;;;;;;;21.65;19.10;;;;;;;20.50;75.63;98238.23;1676419;85;21033;-89
2021/06/26 07:22:11;;;;;;;25.23;20.17;;;;;;;20.46;73.87;98238.70;1675203;84;20962;-83
2021/06/26 07:24:37;;;;;;;22.55;20.25;;;;;;;20.44;73.19;98239.62;1676487;85;21157;-83
2021/06/26 07:27:06;;;;;;;23.62;18.57;;;;;;;20.44;73.43;98234.11;1676021;84;21465;-89
2021/06/26 07:29:34;;;;;;;19.05;16.27;;;;;;;20.47;72.94;98239.50;1676358;84;21044;-83
2021/06/26 07:32:04;;;;;;;17.95;14.45;;;;;;;20.62;72.20;98234.73;1675731;84;21026;-83
2021/06/26 07:34:39;;;;;;;17.95;13.72;;;;;;;20.61;70.55;98230.38;1683354;84;21051;-89
2021/06/26 07:37:10;;;;;;;;;;;;;;;;;;;;;
2021/06/26 07:39:28;;;;;;;16.05;14.35;;;;;;;20.74;72.03;98231.20;1689706;84;20918;-89
2021/06/26 07:42:03;;;;;;;16.93;14.87;;;;;;;20.79;70.93;98231.80;1680998;84;20989;-83
2021/06/26 07:44:25;;;;;;;18.82;14.30;;;;;;;20.61;69.35;98228.20;1684735;85;21456;-89
2021/06/26 07:46:51;;;;;;;21.77;16.82;;;;;;;20.76;70.94;98225.57;1681124;84;21045;-89
2021/06/26 07:49:21;;;;;;;20.93;17.13;;;;;;;20.86;71.17;98222.98;1680984;85;20977;-83
2021/06/26 07:51:47;;;;;;;20.02;17.92;;;;;;;20.92;70.99;98222.95;1685812;83;21673;-89
2021/06/26 07:54:16;;;;;;;18.05;15.90;;;;;;;20.88;70.74;98221.25;1686190;85;21044;-83
2021/06/26 07:56:44;;;;;;;23.57;15.72;;;;;;;21.03;70.96;98221.95;1681157;84;20986;-83
2021/06/26 07:59:15;;;;;;;18.65;15.03;;;;;;;21.17;70.66;98222.98;1680742;85;21053;-83
2021/06/26 08:01:43;;;;;;;17.05;14.43;;;;;;;21.21;70.47;98219.20;1685668;83;20917;-88
2021/06/26 08:04:12;;;;;;;;;;;;;;;21.35;70.65;98222.42;1683238;84;20926;-84
2021/06/26 08:06:44;;;;;;;19.42;15.48;;;;;;;21.44;70.36;98222.30;1660247;85;20165;-83
2021/06/26 08:09:16;;;;;;;19.07;14.43;;;;;;;21.56;69.68;98221.51;1555862;91;21428;-89
2021/06/26 08:11:43;;;;;;;13.93;12.35;;;;;;;21.72;70.05;98220.22;1555951;91;20935;-84
2021/06/26 08:14:12;;;;;;;16.42;14.03;;;;;;;21.80;69.26;98215.15;1666175;85;21158;-83
2021/06/26 08:16:40;;;;;;;20.82;15.35;;;;;;;21.86;67.17;98215.91;1686221;83;20977;-83
2021/06/26 08:19:19;;;;;;;18.85;15.72;;;;;;;21.93;67.95;98214.75;1660571;85;20985;-88
2021/06/26 08:21:38;;;;;;;17.37;15.48;;;;;;;21.91;66.68;98213.50;1680447;83;20992;-89
2021/06/26 08:24:05;;;;;;;20.05;15.50;;;;;;;21.95;66.84;98211.63;1686343;85;20996;-89
2021/06/26 08:26:41;;;;;;;;;;;;;;;;;;;;;
2021/06/26 08:29:03;;;;;;;18.02;15.88;;;;;;;21.97;65.32;98207.97;1678956;85;21374;-83
2021/06/26 08:31:33;;;;;;;18.75;15.58;;;;;;;21.99;66.25;98209.00;1686063;83;21380;-84
2021/06/26 08:34:03;;;;;;;15.18;13.55;;;;;;;22.09;66.15;98201.05;1680918;84;21347;-83
2021/06/26 08:36:32;;;;;;;19.37;16.70;;;;;;;22.16;65.47;98200.45;1678283;84;21414;-90
2021/06/26 08:51:59;;;;;;;;;;;;;;;;;;;;;
2021/06/26 08:54:21;;;;;;;17.60;15.88;;;;;;;22.79;63.80;98188.93;1842954;77;20816;-83
2021/06/26 08:56:48;;;;;;;18.80;15.15;;;;;;;22.87;63.49;98189.14;1854034;77;21114;-87
2021/06/26 08:59:16;;;;;;;16.42;14.68;;;;;;;22.91;63.03;98181.77;1822805;77;20886;-82
2021/06/26 09:01:43;;;;;;;16.73;14.87;;;;;;;22.87;62.49;98183.62;1853620;77;21061;-86
2021/06/26 09:04:20;;;;;;;17.10;15.30;;;;;;;22.84;63.16;98180.17;1853956;77;21498;-82
2021/06/26 09:06:58;;;;;;;16.67;14.95;;;;;;;22.63;62.36;98183.97;1851605;76;20935;-86
2021/06/26 09:09:39;;;;;;;16.73;14.95;;;;;;;22.66;63.12;98180.52;1853595;76;21062;-85
2021/06/26 09:12:12;;;;;;;15.20;13.60;;;;;;;22.61;63.01;98177.20;1851106;77;20910;-83
2021/06/26 09:14:42;;;;;;;17.35;15.55;;;;;;;22.64;63.00;98191.09;1854072;77;20852;-82
2021/06/26 09:17:12;;;;;;;19.40;14.80;;;;;;;22.76;63.37;98186.89;1809900;79;20983;-86
2021/06/26 09:19:40;;;;;;;19.77;16.35;;;;;;;22.70;62.39;98184.16;1755205;80;21017;-82
2021/06/26 09:22:22;;;;;;;;;;;;;;;;;;;;;
2021/06/26 09:24:44;;;;;;;14.60;13.10;;;;;;;22.44;62.22;98188.00;1811897;79;21291;-86
2021/06/26 09:27:16;;;;;;;15.25;13.65;;;;;;;22.24;61.84;98185.13;1812021;79;20980;-86
2021/06/26 09:29:53;;;;;;;21.48;17.48;;;;;;;22.33;62.75;98184.96;1812751;79;20924;-87
2021/06/26 09:32:29;;;;;;;19.00;17.07;;;;;;;22.41;63.55;98178.48;1813374;79;20878;-82
2021/06/26 09:34:59;;;;;;;20.92;18.00;;;;;;;22.66;63.90;98179.72;1813614;79;21116;-85
2021/06/26 09:37:31;;;;;;;20.75;17.20;;;;;;;22.74;63.58;98180.92;1783176;79;20885;-88
2021/06/26 09:40:08;;;;;;;;;;;;;;;;;;;;;
2021/06/26 09:42:42;;;;;;;;;;;;;;;;;;;;;
2021/06/26 09:45:09;;;;;;;17.10;14.68;;;;;;;23.06;62.53;98165.15;1810628;79;21020;-87
2021/06/26 09:47:42;;;;;;;16.82;15.18;;;;;;;23.25;62.59;98173.30;1813276;79;20929;-83
2021/06/26 09:50:29;;;;;;;18.60;15.85;;;;;;;23.37;61.66;98163.50;1811795;77;20909;-87
2021/06/26 09:53:15;;;;;;;;;;;;;;;;;;;;;
2021/06/26 09:55:46;;;;;;;13.95;12.55;;;;;;;23.43;60.42;98167.60;1808295;79;21184;-83
2021/06/26 09:58:16;;;;;;;13.15;11.73;;;;;;;23.31;58.43;98160.20;1812745;79;20901;-82
2021/06/26 10:00:49;;;;;;;15.23;12.15;;;;;;;23.14;58.59;98168.09;1807949;79;21282;-83
2021/06/26 10:03:22;;;;;;;12.75;11.33;;;;;;;23.22;58.93;98174.80;1716679;83;21322;-88
2021/06/26 10:05:52;;;;;;;13.55;11.22;;;;;;;23.48;59.25;98170.65;1716049;83;20961;-82
2021/06/26 10:08:36;;;;;;;;;;;;;;;;;;;;;
2021/06/26 10:10:59;;;;;;;12.98;10.08;;;;;;;23.08;59.09;98169.77;1797163;79;20892;-82
2021/06/26 10:13:42;;;;;;;;;;;;;;;;;;;;;
2021/06/26 10:16:02;;;;;;;11.38;9.40;;;;;;;23.24;59.00;98165.56;1781527;79;21321;-83
2021/06/26 10:18:30;;;;;;;10.72;9.33;;;;;;;23.34;58.96;98157.33;1770082;81;21438;-82
2021/06/26 10:21:08;;;;;;;9.68;8.68;;;;;;;23.27;59.05;98159.34;1745983;81;20914;-88
2021/06/26 10:23:34;;;;;;;11.70;9.55;;;;;;;23.30;58.35;98163.34;1808644;79;21298;-82
2021/06/26 10:26:17;;;;;;;;;;;;;;;;;;;;;
2021/06/26 10:28:36;;;;;;;10.95;9.05;;;;;;;23.73;57.62;98171.23;1793708;79;21015;-88
2021/06/26 10:31:16;;;;;;;;;;;;;;;;;;;;;
2021/06/26 10:33:48;;;;;;;;;;;;;;;;;;;;;
2021/06/26 10:36:07;;;;;;;12.90;7.65;;;;;;;24.52;53.20;98163.33;1807640;79;21078;-88
2021/06/26 10:38:42;;;;;;;11.53;7.65;;;;;;;26.22;51.39;98155.17;1810029;79;20945;-89
2021/06/26 10:41:20;;;;;;;13.90;9.35;;;;;;;27.45;47.45;98163.66;1812882;79;20897;-87
2021/06/26 10:43:56;;;;;;;9.43;8.38;;;;;;;28.14;43.34;98157.26;1812819;79;20932;-88
2021/06/26 10:46:31;;;;;;;10.30;8.30;;;;;;;30.22;42.78;98159.58;1808021;79;20941;-88
2021/06/26 10:49:09;;;;;;;10.43;8.30;;;;;;;31.34;40.14;98157.02;1812300;79;20929;-84
2021/06/26 10:51:35;;;;;;;12.25;8.95;;;;;;;31.22;34.87;98164.54;1813993;79;21094;-88
2021/06/26 10:54:18;;;;;;;9.63;8.00;;;;;;;32.11;34.79;98160.17;1816738;79;21694;-88
2021/06/26 10:56:46;;;;;;;7.70;7.00;;;;;;;32.16;33.54;98159.72;1816798;79;21008;-84
2021/06/26 10:59:17;;;;;;;7.60;6.80;;;;;;;32.69;32.85;98165.20;1816721;79;21424;-90
2021/06/26 11:02:00;;;;;;;8.65;7.75;;;;;;;33.20;32.03;98158.20;1816917;79;21366;-84
2021/06/26 11:04:26;;;;;;;9.78;8.88;;;;;;;32.88;33.63;98160.92;1817113;79;21124;-89
2021/06/26 11:07:07;;;;;;;9.93;8.48;;;;;;;33.28;32.82;98156.86;1816845;79;20936;-89
2021/06/26 11:09:41;;;;;;;12.35;11.03;;;;;;;32.86;31.46;98160.56;1816749;79;21413;-83
2021/06/26 11:12:16;;;;;;;10.70;8.43;;;;;;;33.28;31.28;98150.63;1816805;79;20884;-84
2021/06/26 11:14:56;;;;;;;10.78;8.53;;;;;;;33.96;29.64;98146.58;1817140;78;20978;-85
2021/06/26 11:17:25;;;;;;;9.13;8.13;;;;;;;35.51;31.37;98144.77;1816836;79;21586;-88
2021/06/26 11:19:54;;;;;;;8.75;7.78;;;;;;;34.78;28.55;98146.16;1815565;79;21308;-85
2021/06/26 11:22:19;;;;;;;9.18;8.38;;;;;;;35.11;28.70;98140.57;1816405;79;21449;-86
2021/06/26 11:24:46;;;;;;;8.38;7.58;;;;;;;35.04;29.76;98140.95;1813943;79;21349;-89
2021/06/26 11:27:19;;;;;;;9.05;8.15;;;;;;;36.11;29.76;98132.41;1816878;79;21003;-84
2021/06/26 11:29:47;;;;;;;8.68;7.87;;;;;;;35.18;30.05;98136.17;1817244;79;21087;-89
2021/06/26 11:32:24;;;;;;;12.95;8.75;;;;;;;35.17;29.49;98132.56;1816502;79;20991;-89
2021/06/26 11:35:11;;;;;;;9.88;8.98;;;;;;;35.42;29.95;98139.59;1817042;79;21393;-89
2021/06/26 11:37:42;;;;;;;10.48;8.33;;;;;;;34.92;30.33;98136.01;1815185;79;20941;-90
2021/06/26 11:40:21;;;;;;;9.00;8.20;;;;;;;34.08;30.59;98128.26;1816989;79;21055;-90
2021/06/26 11:42:55;;;;;;;12.28;9.80;;;;;;;34.92;30.71;98126.77;1817134;79;21301;-91
2021/06/26 11:45:35;;;;;;;10.63;9.73;;;;;;;35.04;30.95;98133.12;1816334;79;21430;-84
2021/06/26 11:48:14;;;;;;;10.20;8.95;;;;;;;34.29;31.05;98138.26;1816896;78;21011;-84
2021/06/26 11:50:53;;;;;;;12.88;9.75;;;;;;;33.52;32.81;98137.39;1816293;79;21056;-89
2021/06/26 11:53:22;;;;;;;11.48;10.48;;;;;;;31.72;36.29;98142.42;1812267;79;20885;-84
2021/06/26 11:56:03;;;;;;;10.82;9.83;;;;;;;28.90;41.63;98141.13;1812850;79;21144;-85
2021/06/26 11:58:49;;;;;;;10.58;9.63;;;;;;;31.06;38.78;98136.45;1812774;79;20967;-89
2021/06/26 12:01:31;;;;;;;9.55;8.65;;;;;;;31.46;37.89;98131.31;1812716;79;20999;-85
2021/06/26 12:04:00;;;;;;;10.78;9.45;;;;;;;29.45;40.73;98129.48;1812850;79;20937;-84
2021/06/26 12:06:33;;;;;;;9.80;8.30;;;;;;;29.10;41.78;98144.30;1812822;79;20837;-89
2021/06/26 12:08:59;;;;;;;8.33;7.35;;;;;;;29.34;40.39;98140.48;1812391;79;21138;-90
2021/06/26 12:11:29;;;;;;;8.33;7.53;;;;;;;30.97;37.63;98147.33;1812997;79;20941;-89
2021/06/26 12:13:59;;;;;;;9.20;7.80;;;;;;;30.98;37.59;98143.32;1812400;79;20833;-85
2021/06/26 12:16:31;;;;;;;9.30;8.40;;;;;;;32.40;36.11;98141.00;1812798;79;21385;-85
2021/06/26 12:19:02;;;;;;;8.50;7.70;;;;;;;32.34;34.43;98134.27;1812930;79;21322;-89
2021/06/26 12:21:42;;;;;;;8.35;7.47;;;;;;;33.78;33.40;98128.66;1812733;79;21201;-84
2021/06/26 12:24:08;;;;;;;7.62;7.03;;;;;;;32.77;32.64;98137.84;1812912;79;20883;-90
2021/06/26 12:26:37;;;;;;;7.83;6.97;;;;;;;33.19;33.07;98139.16;1813098;79;20969;-84
2021/06/26 12:29:03;;;;;;;10.63;8.75;;;;;;;33.81;32.36;98137.61;1812607;79;20955;-85
2021/06/26 12:31:29;;;;;;;11.57;10.50;;;;;;;32.86;33.76;98140.13;1812795;79;20940;-90
2021/06/26 12:34:01;;;;;;;12.07;10.75;;;;;;;33.09;33.57;98134.54;1808185;79;21023;-90
2021/06/26 12:36:27;;;;;;;12.35;11.25;;;;;;;32.41;35.55;98129.18;1812052;79;20897;-89
2021/06/26 12:38:53;;;;;;;12.95;11.70;;;;;;;32.58;34.51;98120.31;1812763;79;20947;-89